Time;durP1;ratioP1;P1;durP2;ratioP2;P2;SDS_P1;SDS_P2;PMS_P1;PMS_P2;Temp;Humidity;BMP_temperature;BMP_pressure;BME280_temperature;BME280_humidity;BME280_pressure;Samples;Min_cycle;Max_cycle;Signal;HPM_P1;HPM_P2
2022/09/29 00:00:22;;;;;;;;;8.50;8.50;;;;;;;;4984330;28;10383;-83
2022/09/29 00:02:50;;;;;;;;;10.00;8.25;;;;;;;;4988384;28;10636;-82
2022/09/29 00:05:17;;;;;;;;;7.75;7.75;;;;;;;;4988590;28;10633;-80
2022/09/29 00:07:44;;;;;;;;;6.00;6.00;;;;;;;;4987097;28;10639;-80
2022/09/29 00:10:12;;;;;;;;;7.75;6.25;;;;;;;;4987219;28;10503;-81
2022/09/29 00:12:41;;;;;;;;;8.00;8.00;;;;;;;;4986799;28;10592;-81
2022/09/29 00:15:09;;;;;;;;;9.00;7.50;;;;;;;;4987829;28;11058;-82
2022/09/29 00:17:36;;;;;;;;;7.75;7.75;;;;;;;;4986103;28;10682;-81
2022/09/29 00:20:04;;;;;;;;;8.00;8.00;;;;;;;;4987805;28;10759;-82
2022/09/29 00:22:32;;;;;;;;;5.75;5.75;;;;;;;;4986928;28;11440;-81
2022/09/29 00:24:59;;;;;;;;;7.00;7.00;;;;;;;;4985751;28;10544;-82
2022/09/29 00:27:26;;;;;;;;;5.00;5.00;;;;;;;;4987790;28;10470;-82
2022/09/29 00:29:55;;;;;;;;;5.00;4.00;;;;;;;;4986011;28;10717;-81
2022/09/29 00:32:23;;;;;;;;;7.00;7.00;;;;;;;;4987255;28;10631;-82
2022/09/29 00:34:50;;;;;;;;;7.25;7.25;;;;;;;;4985897;28;10790;-81
2022/09/29 00:37:18;;;;;;;;;8.00;7.00;;;;;;;;4987586;28;10745;-81
2022/09/29 00:39:45;;;;;;;;;9.00;7.75;;;;;;;;4986856;28;11561;-82
2022/09/29 00:42:12;;;;;;;;;8.75;7.25;;;;;;;;4986710;28;10838;-82
2022/09/29 00:45:14;;;;;;;;;7.50;7.00;;;;;;;;4987424;28;10836;-81
2022/09/29 00:47:45;;;;;;;;;8.75;8.75;;;;;;;;4963704;28;11644;-82
2022/09/29 00:50:16;;;;;;;;;8.00;8.00;;;;;;;;4987361;28;10783;-82
2022/09/29 00:52:47;;;;;;;;;5.00;5.00;;;;;;;;4986294;28;11695;-82
2022/09/29 00:55:18;;;;;;;;;5.50;5.50;;;;;;;;4984871;28;11111;-81
2022/09/29 00:57:50;;;;;;;;;9.00;7.25;;;;;;;;4987116;28;10860;-82
2022/09/29 01:00:19;;;;;;;;;8.75;6.50;;;;;;;;4985479;28;10964;-82
2022/09/29 01:02:51;;;;;;;;;7.75;7.75;;;;;;;;4989133;28;11850;-82
2022/09/29 01:05:21;;;;;;;;;9.75;8.00;;;;;;;;4985921;28;11847;-82
2022/09/29 01:07:49;;;;;;;;;8.00;8.00;;;;;;;;4986708;28;11012;-82
2022/09/29 01:10:18;;;;;;;;;7.50;7.50;;;;;;;;4986499;28;11153;-82
2022/09/29 01:12:47;;;;;;;;;7.00;7.00;;;;;;;;4974763;28;11177;-82
2022/09/29 01:15:16;;;;;;;;;4.25;4.25;;;;;;;;4985653;28;11509;-82
2022/09/29 01:17:46;;;;;;;;;3.50;3.50;;;;;;;;4985334;28;11165;-81
2022/09/29 01:20:15;;;;;;;;;7.75;7.75;;;;;;;;4986391;28;11254;-82
2022/09/29 01:23:15;;;;;;;;;9.00;6.50;;;;;;;;4983986;28;11510;-83
2022/09/29 01:26:00;;;;;;;;;8.75;8.75;;;;;;;;4982981;28;11198;-82
2022/09/29 01:28:48;;;;;;;;;8.75;8.75;;;;;;;;4985286;28;11511;-83
2022/09/29 01:31:25;;;;;;;;;7.50;7.50;;;;;;;;4984586;28;11458;-83
2022/09/29 01:33:59;;;;;;;;;10.25;9.75;;;;;;;;4986069;28;11496;-82
2022/09/29 01:36:36;;;;;;;;;8.75;7.00;;;;;;;;4986425;28;11510;-82
2022/09/29 01:39:14;;;;;;;;;8.50;8.50;;;;;;;;4985124;28;11697;-83
2022/09/29 01:41:47;;;;;;;;;7.25;7.25;;;;;;;;4986393;28;11639;-82
2022/09/29 01:44:21;;;;;;;;;6.50;6.50;;;;;;;;4984735;28;12257;-82
2022/09/29 01:46:53;;;;;;;;;6.75;6.75;;;;;;;;4986221;28;11571;-82
2022/09/29 01:49:22;;;;;;;;;7.75;7.75;;;;;;;;4985775;28;11481;-83
2022/09/29 01:51:53;;;;;;;;;7.00;7.00;;;;;;;;4985520;28;11499;-83
2022/09/29 01:54:26;;;;;;;;;12.25;9.00;;;;;;;;4986482;28;11578;-83
2022/09/29 01:56:58;;;;;;;;;11.75;9.50;;;;;;;;4984848;28;11523;-83
2022/09/29 01:59:30;;;;;;;;;7.00;7.00;;;;;;;;4986342;28;11525;-82
2022/09/29 02:02:03;;;;;;;;;8.25;8.25;;;;;;;;4984610;28;11471;-83
2022/09/29 02:04:33;;;;;;;;;8.50;8.50;;;;;;;;4985753;28;11580;-82
2022/09/29 02:07:02;;;;;;;;;7.25;7.25;;;;;;;;4986093;28;11611;-82
2022/09/29 02:09:35;;;;;;;;;9.50;9.50;;;;;;;;4984271;28;12287;-82
2022/09/29 02:12:06;;;;;;;;;7.00;7.00;;;;;;;;4985867;28;11535;-82
2022/09/29 02:14:37;;;;;;;;;7.00;7.00;;;;;;;;4983769;28;11616;-80
2022/09/29 02:17:08;;;;;;;;;6.75;6.75;;;;;;;;4984564;28;11493;-82
2022/09/29 02:19:38;;;;;;;;;5.00;4.00;;;;;;;;4985283;28;11473;-82
2022/09/29 02:22:06;;;;;;;;;9.25;7.25;;;;;;;;4984504;28;11524;-82
2022/09/29 02:24:33;;;;;;;;;8.00;8.00;;;;;;;;4983540;28;11501;-82
2022/09/29 02:27:01;;;;;;;;;9.50;7.50;;;;;;;;4983040;28;11579;-82
2022/09/29 02:29:28;;;;;;;;;6.75;6.75;;;;;;;;4985312;28;11515;-82
2022/09/29 02:32:00;;;;;;;;;6.00;6.00;;;;;;;;4983771;28;11492;-82
2022/09/29 02:34:30;;;;;;;;;7.00;7.00;;;;;;;;4985418;28;11496;-82
2022/09/29 02:37:02;;;;;;;;;8.50;6.75;;;;;;;;4972950;28;11485;-83
2022/09/29 02:39:39;;;;;;;;;9.75;7.25;;;;;;;;4979981;28;11498;-82
2022/09/29 02:42:18;;;;;;;;;7.50;7.50;;;;;;;;4984213;28;11503;-82
2022/09/29 02:44:57;;;;;;;;;7.25;7.25;;;;;;;;4983871;28;11520;-82
2022/09/29 02:47:52;;;;;;;;;8.00;6.25;;;;;;;;4985045;28;11511;-82
2022/09/29 02:50:31;;;;;;;;;7.50;7.50;;;;;;;;4975145;28;11516;-82
2022/09/29 02:53:07;;;;;;;;;8.25;6.25;;;;;;;;4983773;28;11470;-81
2022/09/29 02:55:41;;;;;;;;;9.25;8.00;;;;;;;;4983460;28;11506;-83
2022/09/29 02:58:14;;;;;;;;;11.50;9.25;;;;;;;;4984059;28;11515;-84
2022/09/29 03:00:42;;;;;;;;;9.00;9.00;;;;;;;;4984569;28;12191;-84
2022/09/29 03:03:10;;;;;;;;;7.25;7.25;;;;;;;;4984464;28;11488;-83
2022/09/29 03:05:39;;;;;;;;;10.25;8.50;;;;;;;;4983806;28;11593;-83
2022/09/29 03:08:06;;;;;;;;;7.00;7.00;;;;;;;;4984821;28;11503;-82
2022/09/29 03:10:33;;;;;;;;;6.00;6.00;;;;;;;;4983188;28;11469;-82
2022/09/29 03:13:00;;;;;;;;;8.25;6.75;;;;;;;;4985206;28;12366;-82
2022/09/29 03:15:28;;;;;;;;;6.00;6.00;;;;;;;;4983279;28;11501;-83
2022/09/29 03:17:56;;;;;;;;;1.75;1.75;;;;;;;;4984727;28;11505;-83
2022/09/29 03:20:24;;;;;;;;;6.50;5.00;;;;;;;;4983975;28;11513;-82
2022/09/29 03:22:56;;;;;;;;;4.50;4.50;;;;;;;;4984484;28;11536;-83
2022/09/29 03:25:24;;;;;;;;;6.00;6.00;;;;;;;;4984674;28;11519;-83
2022/09/29 03:27:51;;;;;;;;;4.00;4.00;;;;;;;;4983852;28;11517;-82
2022/09/29 03:30:19;;;;;;;;;6.50;6.50;;;;;;;;4982475;28;11549;-82
2022/09/29 03:32:46;;;;;;;;;8.75;8.75;;;;;;;;4983176;28;11632;-83
2022/09/29 03:35:14;;;;;;;;;7.75;7.75;;;;;;;;4983124;28;11514;-82
2022/09/29 03:37:41;;;;;;;;;7.50;7.50;;;;;;;;4981957;28;11481;-82
2022/09/29 03:40:11;;;;;;;;;6.00;6.00;;;;;;;;4984065;28;11623;-82
2022/09/29 03:42:38;;;;;;;;;7.75;7.00;;;;;;;;4984568;28;11502;-82
2022/09/29 03:45:07;;;;;;;;;8.75;7.25;;;;;;;;4983879;28;11564;-81
2022/09/29 03:47:34;;;;;;;;;7.25;6.75;;;;;;;;4984222;28;11577;-82
2022/09/29 03:50:01;;;;;;;;;8.00;8.00;;;;;;;;4983249;28;11667;-82
2022/09/29 03:52:29;;;;;;;;;8.75;8.00;;;;;;;;4984214;28;12217;-82
2022/09/29 03:54:56;;;;;;;;;7.75;7.75;;;;;;;;4983471;28;11572;-82
2022/09/29 03:57:25;;;;;;;;;7.75;7.25;;;;;;;;4983575;28;12477;-82
2022/09/29 03:59:52;;;;;;;;;7.75;6.75;;;;;;;;4983924;28;11479;-82
2022/09/29 04:02:20;;;;;;;;;11.50;11.50;;;;;;;;4982864;28;11473;-82
2022/09/29 04:04:47;;;;;;;;;8.00;8.00;;;;;;;;4984393;28;11607;-82
2022/09/29 04:07:14;;;;;;;;;9.00;9.00;;;;;;;;4983132;28;11602;-83
2022/09/29 04:09:42;;;;;;;;;8.75;8.75;;;;;;;;4984472;28;11577;-83
2022/09/29 04:12:09;;;;;;;;;9.50;9.50;;;;;;;;4983007;28;11575;-83
2022/09/29 04:14:38;;;;;;;;;10.00;8.00;;;;;;;;4984682;28;11613;-83
2022/09/29 04:17:05;;;;;;;;;8.75;8.75;;;;;;;;4983208;28;11685;-83
2022/09/29 04:19:33;;;;;;;;;8.00;6.75;;;;;;;;4984006;28;11515;-83
2022/09/29 04:22:00;;;;;;;;;13.50;12.25;;;;;;;;4983884;28;11489;-83
2022/09/29 04:24:27;;;;;;;;;4.00;4.00;;;;;;;;4982921;28;11728;-84
2022/09/29 04:26:55;;;;;;;;;9.50;8.75;;;;;;;;4984086;28;11516;-82
2022/09/29 04:29:22;;;;;;;;;9.75;8.25;;;;;;;;4982714;28;11534;-83
2022/09/29 04:31:51;;;;;;;;;9.00;9.00;;;;;;;;4982793;28;11495;-81
2022/09/29 04:34:19;;;;;;;;;13.00;12.00;;;;;;;;4983146;28;11616;-81
2022/09/29 04:36:47;;;;;;;;;4.00;4.00;;;;;;;;4983106;28;11579;-81
2022/09/29 04:39:14;;;;;;;;;10.50;8.50;;;;;;;;4982434;28;11534;-82
2022/09/29 04:41:42;;;;;;;;;8.50;8.50;;;;;;;;4982425;28;11546;-81
2022/09/29 04:44:09;;;;;;;;;9.25;9.25;;;;;;;;4981846;28;11521;-82
2022/09/29 04:46:37;;;;;;;;;6.00;6.00;;;;;;;;4975493;28;11491;-82
2022/09/29 04:49:06;;;;;;;;;7.00;6.50;;;;;;;;4986243;28;11539;-79
2022/09/29 04:51:33;;;;;;;;;9.00;9.00;;;;;;;;4984320;28;11501;-81
2022/09/29 04:54:00;;;;;;;;;9.00;9.00;;;;;;;;4988043;28;11500;-79
2022/09/29 04:56:30;;;;;;;;;8.75;8.75;;;;;;;;4987372;28;11486;-80
2022/09/29 04:58:58;;;;;;;;;8.75;8.75;;;;;;;;4986581;28;11534;-80
2022/09/29 05:01:26;;;;;;;;;9.25;8.75;;;;;;;;4986758;28;11425;-81
2022/09/29 05:03:53;;;;;;;;;8.00;5.00;;;;;;;;4985619;28;11516;-82
2022/09/29 05:06:22;;;;;;;;;8.50;8.50;;;;;;;;4985357;28;11556;-82
2022/09/29 05:08:50;;;;;;;;;4.00;4.00;;;;;;;;4985211;28;11496;-81
2022/09/29 05:11:17;;;;;;;;;7.25;5.25;;;;;;;;4986373;28;11584;-82
2022/09/29 05:13:45;;;;;;;;;7.25;7.25;;;;;;;;4984836;28;11513;-79
2022/09/29 05:16:12;;;;;;;;;9.00;7.00;;;;;;;;4984932;28;11486;-80
2022/09/29 05:18:40;;;;;;;;;5.50;5.50;;;;;;;;4985108;28;11488;-82
2022/09/29 05:21:08;;;;;;;;;6.50;6.50;;;;;;;;4981780;28;11710;-79
2022/09/29 05:23:37;;;;;;;;;7.50;7.50;;;;;;;;4984687;28;11550;-79
2022/09/29 05:26:05;;;;;;;;;7.00;4.50;;;;;;;;4984034;28;11516;-81
2022/09/29 05:28:33;;;;;;;;;8.75;8.50;;;;;;;;4984135;28;11178;-81
2022/09/29 05:31:04;;;;;;;;;7.75;7.75;;;;;;;;4982425;28;11422;-80
2022/09/29 05:33:31;;;;;;;;;9.00;8.00;;;;;;;;4985160;28;11504;-84
2022/09/29 05:35:59;;;;;;;;;7.75;7.75;;;;;;;;4986515;28;11462;-82
2022/09/29 05:38:27;;;;;;;;;9.00;9.00;;;;;;;;4983182;28;11564;-84
2022/09/29 05:40:55;;;;;;;;;12.75;10.00;;;;;;;;4984979;28;11578;-83
2022/09/29 05:43:24;;;;;;;;;7.75;7.25;;;;;;;;4982891;28;12269;-79
2022/09/29 05:45:51;;;;;;;;;9.00;9.00;;;;;;;;4982894;28;11120;-80
2022/09/29 05:48:19;;;;;;;;;11.00;10.00;;;;;;;;4983250;28;11356;-82
2022/09/29 05:50:46;;;;;;;;;9.25;9.25;;;;;;;;4984421;28;11149;-81
2022/09/29 05:53:14;;;;;;;;;10.75;10.75;;;;;;;;4982826;28;11870;-86
2022/09/29 05:55:41;;;;;;;;;10.25;10.25;;;;;;;;4981589;28;11976;-80
2022/09/29 05:58:10;;;;;;;;;14.25;12.25;;;;;;;;4984835;28;11212;-80
2022/09/29 06:00:37;;;;;;;;;10.00;10.00;;;;;;;;4980828;28;12366;-81
2022/09/29 06:03:05;;;;;;;;;10.00;8.75;;;;;;;;4986031;28;11257;-82
2022/09/29 06:05:32;;;;;;;;;12.75;10.25;;;;;;;;4984023;28;11173;-80
2022/09/29 06:08:02;;;;;;;;;11.00;8.75;;;;;;;;4983559;28;11124;-77
2022/09/29 06:10:30;;;;;;;;;12.00;12.00;;;;;;;;4985174;28;11206;-81
2022/09/29 06:12:57;;;;;;;;;10.50;10.50;;;;;;;;4983087;28;11162;-76
2022/09/29 06:15:26;;;;;;;;;14.50;14.50;;;;;;;;4984529;28;10899;-77
2022/09/29 06:17:56;;;;;;;;;15.00;14.50;;;;;;;;4984058;28;11200;-81
2022/09/29 06:20:24;;;;;;;;;10.75;10.25;;;;;;;;4984187;28;11126;-82
2022/09/29 06:22:54;;;;;;;;;12.50;12.50;;;;;;;;4983624;28;11350;-89
2022/09/29 06:25:21;;;;;;;;;16.50;14.00;;;;;;;;4984378;28;11084;-81
2022/09/29 06:27:48;;;;;;;;;11.25;11.25;;;;;;;;4982552;28;11162;-87
2022/09/29 06:30:16;;;;;;;;;10.50;9.25;;;;;;;;4982834;28;11367;-86
2022/09/29 06:32:44;;;;;;;;;10.00;9.00;;;;;;;;4982691;28;11861;-82
2022/09/29 06:37:57;;;;;;;;;11.00;11.00;;;;;;;;4984037;28;11091;-80
2022/09/29 06:40:26;;;;;;;;;8.50;8.50;;;;;;;;4981312;28;10992;-78
2022/09/29 06:42:53;;;;;;;;;7.25;4.00;;;;;;;;4983263;28;10873;-82
2022/09/29 06:45:20;;;;;;;;;6.50;6.50;;;;;;;;4982962;28;11010;-83
2022/09/29 06:47:49;;;;;;;;;10.00;8.50;;;;;;;;4983115;28;10869;-82
2022/09/29 06:50:17;;;;;;;;;8.75;8.75;;;;;;;;4983286;28;11025;-83
2022/09/29 06:52:44;;;;;;;;;12.00;10.00;;;;;;;;4981558;28;11011;-81
2022/09/29 06:55:11;;;;;;;;;8.75;8.75;;;;;;;;4983887;28;11644;-77
2022/09/29 06:57:39;;;;;;;;;9.75;8.00;;;;;;;;4981459;28;10874;-80
2022/09/29 07:00:08;;;;;;;;;9.50;9.50;;;;;;;;4982867;28;11120;-81
2022/09/29 07:02:35;;;;;;;;;10.00;7.75;;;;;;;;4982503;28;10938;-81
2022/09/29 07:05:04;;;;;;;;;9.75;8.25;;;;;;;;4980660;28;10872;-79
2022/09/29 07:07:31;;;;;;;;;12.25;8.75;;;;;;;;4981866;28;10810;-80
2022/09/29 07:09:59;;;;;;;;;10.75;9.75;;;;;;;;4980710;28;10867;-80
2022/09/29 07:12:26;;;;;;;;;8.50;8.50;;;;;;;;4984254;28;10896;-81
2022/09/29 07:14:53;;;;;;;;;10.25;9.00;;;;;;;;4981009;28;10836;-75
2022/09/29 07:17:21;;;;;;;;;10.00;8.25;;;;;;;;4983940;28;10798;-76
2022/09/29 07:19:49;;;;;;;;;9.50;9.50;;;;;;;;4983187;28;10794;-75
2022/09/29 07:22:18;;;;;;;;;4.50;3.00;;;;;;;;4982591;28;10799;-76
2022/09/29 07:24:46;;;;;;;;;8.00;8.00;;;;;;;;4982939;28;11589;-76
2022/09/29 07:27:13;;;;;;;;;11.25;10.75;;;;;;;;4981538;28;10720;-76
2022/09/29 07:29:41;;;;;;;;;12.25;9.50;;;;;;;;4982547;28;10697;-76
2022/09/29 07:32:08;;;;;;;;;11.50;10.50;;;;;;;;4982137;28;10797;-75
2022/09/29 07:34:35;;;;;;;;;8.00;8.00;;;;;;;;4984595;28;10792;-76
2022/09/29 07:37:02;;;;;;;;;10.50;10.50;;;;;;;;4983170;28;10658;-76
2022/09/29 07:39:31;;;;;;;;;10.75;10.75;;;;;;;;4983476;28;10781;-76
2022/09/29 07:41:59;;;;;;;;;11.75;11.50;;;;;;;;4983926;28;10757;-75
2022/09/29 07:44:27;;;;;;;;;11.75;11.75;;;;;;;;4982913;28;10765;-75
2022/09/29 07:46:54;;;;;;;;;12.00;12.00;;;;;;;;4983273;28;10805;-76
2022/09/29 07:49:21;;;;;;;;;7.00;7.00;;;;;;;;4977171;28;10892;-75
2022/09/29 07:51:49;;;;;;;;;18.00;16.50;;;;;;;;4982337;28;10809;-74
2022/09/29 07:54:16;;;;;;;;;12.00;12.00;;;;;;;;4982263;28;10807;-74
2022/09/29 07:56:45;;;;;;;;;16.50;14.50;;;;;;;;4983671;28;10735;-75
2022/09/29 07:59:12;;;;;;;;;17.00;16.25;;;;;;;;4982935;28;10747;-75
2022/09/29 08:01:40;;;;;;;;;16.75;16.75;;;;;;;;4981819;28;10697;-76
2022/09/29 08:04:07;;;;;;;;;14.25;14.25;;;;;;;;4981833;28;10829;-76
2022/09/29 08:06:35;;;;;;;;;17.25;17.25;;;;;;;;4982760;28;10547;-75
2022/09/29 08:09:02;;;;;;;;;20.25;17.00;;;;;;;;4983398;28;10444;-74
2022/09/29 08:11:29;;;;;;;;;22.75;18.25;;;;;;;;4982378;28;10462;-74
2022/09/29 08:13:58;;;;;;;;;18.50;18.50;;;;;;;;4983110;28;10547;-75
2022/09/29 08:16:25;;;;;;;;;15.50;15.00;;;;;;;;4983353;28;10456;-75
2022/09/29 08:18:53;;;;;;;;;18.75;18.75;;;;;;;;4980522;28;10406;-75
2022/09/29 08:21:20;;;;;;;;;20.00;18.00;;;;;;;;4983817;28;10492;-76
2022/09/29 08:23:48;;;;;;;;;23.25;22.00;;;;;;;;4984528;28;11225;-76
2022/09/29 08:26:17;;;;;;;;;14.00;13.25;;;;;;;;4987130;28;10290;-77
2022/09/29 08:28:45;;;;;;;;;18.25;18.25;;;;;;;;4985236;28;10212;-77
2022/09/29 08:31:16;;;;;;;;;23.25;18.75;;;;;;;;4966070;28;10081;-76
2022/09/29 08:33:44;;;;;;;;;21.25;17.00;;;;;;;;4976517;28;9977;-76
2022/09/29 08:36:15;;;;;;;;;15.00;13.00;;;;;;;;4985981;28;9921;-76
2022/09/29 08:38:43;;;;;;;;;12.50;12.50;;;;;;;;4983582;28;9733;-75
2022/09/29 08:41:28;;;;;;;;;18.00;15.50;;;;;;;;4985388;28;9565;-75
2022/09/29 08:43:58;;;;;;;;;18.75;16.50;;;;;;;;4985794;28;9753;-75
2022/09/29 08:46:30;;;;;;;;;13.50;11.50;;;;;;;;4983669;28;10170;-75
2022/09/29 08:48:58;;;;;;;;;16.75;14.50;;;;;;;;4985432;28;9586;-75
2022/09/29 08:51:30;;;;;;;;;10.33;10.33;;;;;;;;4986095;28;9475;-75
2022/09/29 08:53:58;;;;;;;;;13.67;13.67;;;;;;;;4984702;28;9454;-76
2022/09/29 08:56:27;;;;;;;;;15.00;15.00;;;;;;;;4985230;28;9369;-76
2022/09/29 08:58:54;;;;;;;;;14.67;14.67;;;;;;;;4978439;28;9360;-74
2022/09/29 09:01:29;;;;;;;;;10.33;10.33;;;;;;;;4982511;28;9265;-75
2022/09/29 09:04:17;;;;;;;;;13.00;13.00;;;;;;;;4984916;28;9349;-75
2022/09/29 09:06:56;;;;;;;;;18.00;18.00;;;;;;;;4982012;28;9342;-75
2022/09/29 09:09:40;;;;;;;;;11.67;11.67;;;;;;;;4984129;28;9537;-75
2022/09/29 09:12:31;;;;;;;;;14.00;14.00;;;;;;;;4959672;28;9434;-75
2022/09/29 09:15:10;;;;;;;;;12.33;11.33;;;;;;;;4980777;28;9349;-74
2022/09/29 09:17:51;;;;;;;;;11.67;11.67;;;;;;;;4977897;28;9131;-76
2022/09/29 09:20:27;;;;;;;;;14.00;14.00;;;;;;;;4982008;28;9034;-74
2022/09/29 09:22:57;;;;;;;;;13.25;13.25;;;;;;;;4984418;28;9035;-75
2022/09/29 09:25:30;;;;;;;;;12.50;11.00;;;;;;;;4984115;28;8910;-75
2022/09/29 09:28:06;;;;;;;;;12.00;12.00;;;;;;;;4985172;28;8907;-75
2022/09/29 09:30:43;;;;;;;;;17.50;14.50;;;;;;;;4974388;28;8861;-75
2022/09/29 09:33:23;;;;;;;;;9.00;9.00;;;;;;;;4982390;28;8899;-74
2022/09/29 09:35:53;;;;;;;;;11.00;11.00;;;;;;;;4979129;28;9025;-75
2022/09/29 09:38:26;;;;;;;;;8.00;8.00;;;;;;;;4980703;28;8867;-77
2022/09/29 09:40:58;;;;;;;;;9.25;8.50;;;;;;;;4981859;28;8969;-76
2022/09/29 09:43:29;;;;;;;;;6.50;6.00;;;;;;;;4981997;28;8865;-76
2022/09/29 09:46:01;;;;;;;;;8.75;8.75;;;;;;;;4967885;28;9621;-75
2022/09/29 09:48:34;;;;;;;;;9.50;9.25;;;;;;;;4983515;28;8863;-74
2022/09/29 09:51:09;;;;;;;;;10.00;6.00;;;;;;;;4982665;28;8871;-75
2022/09/29 09:53:42;;;;;;;;;4.75;4.75;;;;;;;;4985379;28;8989;-76
2022/09/29 09:56:20;;;;;;;;;7.00;5.75;;;;;;;;4982634;28;8909;-76
2022/09/29 09:59:07;;;;;;;;;8.00;8.00;;;;;;;;4983028;28;8863;-76
2022/09/29 10:01:36;;;;;;;;;6.75;6.50;;;;;;;;4980724;28;8827;-76
2022/09/29 10:04:06;;;;;;;;;10.50;7.25;;;;;;;;4981918;28;8893;-76
2022/09/29 10:06:35;;;;;;;;;7.25;7.25;;;;;;;;4979486;28;8891;-75
2022/09/29 10:09:10;;;;;;;;;8.00;8.00;;;;;;;;4981017;28;9625;-75
2022/09/29 10:11:38;;;;;;;;;7.25;6.00;;;;;;;;4987004;28;8882;-74
2022/09/29 10:14:15;;;;;;;;;7.50;7.00;;;;;;;;4980504;28;8879;-75
2022/09/29 10:16:47;;;;;;;;;7.25;7.25;;;;;;;;4981451;28;8881;-75
2022/09/29 10:19:22;;;;;;;;;6.00;6.00;;;;;;;;4983311;28;9661;-75
2022/09/29 10:21:49;;;;;;;;;3.00;3.00;;;;;;;;4981403;28;9687;-75
2022/09/29 10:24:25;;;;;;;;;4.50;4.50;;;;;;;;4984546;28;8875;-74
2022/09/29 10:26:55;;;;;;;;;3.00;3.00;;;;;;;;4979680;28;8867;-75
2022/09/29 10:29:25;;;;;;;;;4.50;4.50;;;;;;;;4981766;28;8909;-77
2022/09/29 10:32:02;;;;;;;;;4.00;4.00;;;;;;;;4983694;28;9625;-76
2022/09/29 10:34:32;;;;;;;;;3.00;3.00;;;;;;;;4983300;28;8867;-76
2022/09/29 10:37:01;;;;;;;;;6.00;4.50;;;;;;;;4984770;28;8885;-77
2022/09/29 10:39:33;;;;;;;;;5.75;5.75;;;;;;;;4983936;28;8871;-77
2022/09/29 10:42:03;;;;;;;;;5.00;4.25;;;;;;;;4984904;28;8997;-77
2022/09/29 10:44:32;;;;;;;;;5.00;3.00;;;;;;;;4983457;28;8852;-77
2022/09/29 10:47:00;;;;;;;;;4.50;3.00;;;;;;;;4983232;28;9080;-77
2022/09/29 10:49:30;;;;;;;;;3.00;3.00;;;;;;;;4985164;28;8862;-77
2022/09/29 10:52:01;;;;;;;;;1.60;1.60;;;;;;;;4983074;28;9017;-81
2022/09/29 10:54:30;;;;;;;;;1.75;1.75;;;;;;;;4985154;28;8889;-78
2022/09/29 10:56:59;;;;;;;;;2.80;2.00;;;;;;;;4982521;28;8894;-78
2022/09/29 10:59:27;;;;;;;;;3.50;2.00;;;;;;;;4985237;28;8879;-77
2022/09/29 11:01:56;;;;;;;;;1.00;1.00;;;;;;;;4982345;28;8839;-78
2022/09/29 11:04:26;;;;;;;;;2.00;2.00;;;;;;;;4984967;28;8881;-78
2022/09/29 11:06:55;;;;;;;;;1.00;1.00;;;;;;;;4983130;28;9770;-77
2022/09/29 11:09:28;;;;;;;;;1.60;0.00;;;;;;;;4983310;28;8895;-79
2022/09/29 11:11:57;;;;;;;;;1.40;1.40;;;;;;;;4984044;28;8867;-76
2022/09/29 11:14:26;;;;;;;;;3.40;3.40;;;;;;;;4983492;28;8879;-80
2022/09/29 11:16:55;;;;;;;;;2.00;2.00;;;;;;;;4984445;28;8897;-79
2022/09/29 11:19:23;;;;;;;;;1.80;1.80;;;;;;;;4983699;28;9034;-77
2022/09/29 11:22:32;;;;;;;;;0.00;0.00;;;;;;;;4983727;28;8890;-76
2022/09/29 11:25:32;;;;;;;;;1.00;1.00;;;;;;;;4960290;28;8897;-77
2022/09/29 11:28:33;;;;;;;;;1.00;1.00;;;;;;;;4976765;28;10044;-77
2022/09/29 11:31:12;;;;;;;;;0.00;0.00;;;;;;;;4975222;28;8811;-76
2022/09/29 11:33:51;;;;;;;;;2.00;0.80;;;;;;;;4981606;28;8874;-76
2022/09/29 11:36:23;;;;;;;;;0.00;0.00;;;;;;;;4981632;28;8891;-76
2022/09/29 11:39:23;;;;;;;;;0.00;0.00;;;;;;;;4983404;28;8887;-77
2022/09/29 11:42:13;;;;;;;;;0.00;0.00;;;;;;;;4982548;28;8908;-79
2022/09/29 11:44:58;;;;;;;;;0.20;0.20;;;;;;;;4983082;28;8886;-79
2022/09/29 11:48:13;;;;;;;;;0.00;0.00;;;;;;;;4982446;28;8921;-78
2022/09/29 11:50:46;;;;;;;;;0.40;0.40;;;;;;;;4984363;28;8863;-77
2022/09/29 11:53:33;;;;;;;;;0.00;0.00;;;;;;;;4981240;28;8989;-76
2022/09/29 11:56:08;;;;;;;;;0.00;0.00;;;;;;;;4984570;28;8879;-77
2022/09/29 11:58:50;;;;;;;;;0.00;0.00;;;;;;;;4987320;28;8866;-76
2022/09/29 12:01:35;;;;;;;;;0.00;0.00;;;;;;;;4981495;28;8958;-77
2022/09/29 12:04:17;;;;;;;;;0.60;0.60;;;;;;;;4973449;28;8941;-78
2022/09/29 12:06:56;;;;;;;;;1.00;1.00;;;;;;;;4979122;28;9007;-77
2022/09/29 12:09:58;;;;;;;;;0.00;0.00;;;;;;;;4982419;28;8863;-76
2022/09/29 12:12:32;;;;;;;;;0.80;0.80;;;;;;;;4984095;28;8879;-77
2022/09/29 12:15:36;;;;;;;;;1.20;0.00;;;;;;;;4982095;28;8929;-77
2022/09/29 12:18:08;;;;;;;;;0.00;0.00;;;;;;;;4983653;28;8875;-77
2022/09/29 12:20:37;;;;;;;;;0.00;0.00;;;;;;;;4984324;28;9677;-76
2022/09/29 12:23:10;;;;;;;;;0.20;0.20;;;;;;;;4984620;28;8894;-77
2022/09/29 12:25:43;;;;;;;;;2.00;2.00;;;;;;;;4979849;28;8878;-77
2022/09/29 12:28:15;;;;;;;;;1.20;0.00;;;;;;;;4984554;28;8890;-77
2022/09/29 12:30:50;;;;;;;;;0.80;0.80;;;;;;;;4983840;28;9667;-77
2022/09/29 12:33:22;;;;;;;;;3.80;3.80;;;;;;;;4982869;28;8961;-76
2022/09/29 12:35:58;;;;;;;;;3.00;3.00;;;;;;;;4984764;28;8912;-76
2022/09/29 12:38:31;;;;;;;;;0.00;0.00;;;;;;;;4984497;28;8887;-76
2022/09/29 12:41:05;;;;;;;;;2.00;2.00;;;;;;;;4978257;28;8871;-76
2022/09/29 12:43:37;;;;;;;;;0.60;0.60;;;;;;;;4984845;28;8883;-76
2022/09/29 12:46:10;;;;;;;;;1.00;1.00;;;;;;;;4983473;28;8883;-77
2022/09/29 12:48:51;;;;;;;;;0.00;0.00;;;;;;;;4984795;28;8891;-76
2022/09/29 12:51:23;;;;;;;;;0.00;0.00;;;;;;;;4984352;28;8882;-77
2022/09/29 12:54:00;;;;;;;;;0.00;0.00;;;;;;;;4982682;28;8879;-76
2022/09/29 12:56:31;;;;;;;;;0.00;0.00;;;;;;;;4983586;28;8894;-76
2022/09/29 12:59:03;;;;;;;;;0.80;0.80;;;;;;;;4982497;28;10040;-76
2022/09/29 13:01:35;;;;;;;;;0.00;0.00;;;;;;;;4982396;28;8885;-76
2022/09/29 13:04:32;;;;;;;;;0.00;0.00;;;;;;;;4975623;28;8887;-76
2022/09/29 13:07:33;;;;;;;;;0.60;0.60;;;;;;;;4974747;28;8894;-76
2022/09/29 13:10:23;;;;;;;;;0.00;0.00;;;;;;;;4983687;28;8989;-77
2022/09/29 13:13:14;;;;;;;;;0.00;0.00;;;;;;;;4984825;28;8827;-76
2022/09/29 13:15:59;;;;;;;;;0.00;0.00;;;;;;;;4985336;28;8894;-79
2022/09/29 13:18:42;;;;;;;;;1.00;1.00;;;;;;;;4983204;28;8867;-78
2022/09/29 13:21:23;;;;;;;;;0.20;0.20;;;;;;;;4981391;28;8866;-77
2022/09/29 13:24:13;;;;;;;;;0.80;0.80;;;;;;;;4984708;28;8866;-78
2022/09/29 13:27:27;;;;;;;;;0.00;0.00;;;;;;;;4997831;28;8879;-78
2022/09/29 13:30:01;;;;;;;;;0.00;0.00;;;;;;;;4981059;28;8875;-78
2022/09/29 13:32:31;;;;;;;;;0.20;0.20;;;;;;;;4985695;28;8924;-77
2022/09/29 13:35:03;;;;;;;;;0.60;0.60;;;;;;;;4987339;28;8875;-77
2022/09/29 13:37:43;;;;;;;;;0.00;0.00;;;;;;;;4985309;28;9711;-77
2022/09/29 13:40:20;;;;;;;;;1.00;1.00;;;;;;;;4986474;28;8882;-77
2022/09/29 13:42:50;;;;;;;;;1.60;1.60;;;;;;;;4985425;28;8875;-77
2022/09/29 13:45:41;;;;;;;;;7.00;7.00;;;;;;;;4985342;28;8894;-77
2022/09/29 13:48:35;;;;;;;;;2.20;2.20;;;;;;;;4985824;28;8945;-77
2022/09/29 13:51:36;;;;;;;;;4.00;3.20;;;;;;;;4984792;28;8887;-78
2022/09/29 13:54:33;;;;;;;;;31.25;30.00;;;;;;;;4975066;28;8875;-78
2022/09/29 13:57:29;;;;;;;;;3.00;3.00;;;;;;;;4981041;28;8883;-78
2022/09/29 14:00:28;;;;;;;;;2.00;2.00;;;;;;;;4979489;28;8897;-78
2022/09/29 14:03:22;;;;;;;;;1.00;1.00;;;;;;;;4940715;28;8839;-77
2022/09/29 14:06:18;;;;;;;;;0.80;0.80;;;;;;;;4984052;28;8875;-80
2022/09/29 14:08:51;;;;;;;;;0.20;0.20;;;;;;;;4969678;28;8906;-79
2022/09/29 14:11:27;;;;;;;;;1.80;1.80;;;;;;;;4980902;28;8901;-78
2022/09/29 14:13:58;;;;;;;;;1.00;1.00;;;;;;;;4984568;28;10098;-77
2022/09/29 14:16:40;;;;;;;;;7.40;7.40;;;;;;;;4983681;28;8886;-78
2022/09/29 14:19:11;;;;;;;;;4.60;4.60;;;;;;;;4983093;28;8891;-79
2022/09/29 14:21:55;;;;;;;;;2.00;2.00;;;;;;;;4982153;28;8878;-79
2022/09/29 14:24:45;;;;;;;;;3.00;3.00;;;;;;;;4982944;28;8903;-79
2022/09/29 14:27:30;;;;;;;;;1.40;1.40;;;;;;;;4984965;28;8855;-79
2022/09/29 14:30:15;;;;;;;;;1.00;1.00;;;;;;;;4983847;28;8866;-77
2022/09/29 14:32:47;;;;;;;;;0.60;0.60;;;;;;;;4980654;28;8869;-77
2022/09/29 14:35:18;;;;;;;;;1.00;1.00;;;;;;;;4980177;28;8850;-77
2022/09/29 14:37:46;;;;;;;;;1.00;1.00;;;;;;;;4981309;28;8900;-77
2022/09/29 14:40:27;;;;;;;;;0.00;0.00;;;;;;;;4983171;28;8894;-77
2022/09/29 14:43:14;;;;;;;;;0.40;0.40;;;;;;;;4981689;28;8911;-79
2022/09/29 14:52:00;;;;;;;;;0.60;0.60;;;;;;;;4982004;28;8855;-76
2022/09/29 14:54:38;;;;;;;;;0.00;0.00;;;;;;;;4981651;28;9691;-78
2022/09/29 14:57:21;;;;;;;;;1.00;1.00;;;;;;;;4983829;28;8913;-79
2022/09/29 15:00:00;;;;;;;;;2.00;2.00;;;;;;;;4982820;28;8874;-82
2022/09/29 15:02:28;;;;;;;;;0.80;0.00;;;;;;;;4983561;28;8812;-78
2022/09/29 15:04:55;;;;;;;;;1.00;1.00;;;;;;;;4984080;28;8886;-79
2022/09/29 15:07:25;;;;;;;;;0.80;0.80;;;;;;;;4983982;28;8936;-76
2022/09/29 15:09:54;;;;;;;;;1.00;1.00;;;;;;;;4983576;28;8879;-76
2022/09/29 15:12:25;;;;;;;;;1.00;1.00;;;;;;;;4981865;28;8875;-79
2022/09/29 15:14:56;;;;;;;;;1.00;1.00;;;;;;;;4983341;28;8867;-80
2022/09/29 15:17:34;;;;;;;;;1.00;1.00;;;;;;;;4980536;28;8906;-78
2022/09/29 15:20:07;;;;;;;;;1.00;1.00;;;;;;;;4981524;28;8870;-78
2022/09/29 15:22:56;;;;;;;;;1.60;0.40;;;;;;;;4979674;28;8871;-78
2022/09/29 15:25:28;;;;;;;;;0.60;0.60;;;;;;;;4979600;28;9640;-81